sensor_id;sensor_type;location;lat;lon;timestamp;temperature;humidity
65582;DHT22;52231;40.090;18.348;2023-04-24T00:00:35;13.90;87.60
65582;DHT22;52231;40.090;18.348;2023-04-24T00:03:03;13.90;87.70
65582;DHT22;52231;40.090;18.348;2023-04-24T00:05:32;13.90;87.80
65582;DHT22;52231;40.090;18.348;2023-04-24T00:08:00;13.90;88.00
65582;DHT22;52231;40.090;18.348;2023-04-24T00:10:29;13.90;88.10
65582;DHT22;52231;40.090;18.348;2023-04-24T00:12:58;13.80;88.20
65582;DHT22;52231;40.090;18.348;2023-04-24T00:15:26;13.80;88.30
65582;DHT22;52231;40.090;18.348;2023-04-24T00:17:54;13.90;88.50
65582;DHT22;52231;40.090;18.348;2023-04-24T00:20:22;13.90;88.80
65582;DHT22;52231;40.090;18.348;2023-04-24T00:22:51;14.00;89.00
65582;DHT22;52231;40.090;18.348;2023-04-24T00:25:19;14.10;89.20
65582;DHT22;52231;40.090;18.348;2023-04-24T00:27:47;14.10;89.30
65582;DHT22;52231;40.090;18.348;2023-04-24T00:30:15;14.10;89.40
65582;DHT22;52231;40.090;18.348;2023-04-24T00:32:46;14.10;89.50
65582;DHT22;52231;40.090;18.348;2023-04-24T00:35:14;14.10;89.60
65582;DHT22;52231;40.090;18.348;2023-04-24T00:37:42;14.10;89.60
65582;DHT22;52231;40.090;18.348;2023-04-24T00:40:11;14.10;89.80
65582;DHT22;52231;40.090;18.348;2023-04-24T00:42:40;14.10;89.90
65582;DHT22;52231;40.090;18.348;2023-04-24T00:45:08;14.10;89.90
65582;DHT22;52231;40.090;18.348;2023-04-24T00:47:37;14.10;90.00
65582;DHT22;52231;40.090;18.348;2023-04-24T00:50:07;14.10;90.00
65582;DHT22;52231;40.090;18.348;2023-04-24T00:52:35;14.20;90.00
65582;DHT22;52231;40.090;18.348;2023-04-24T00:55:04;14.20;90.10
65582;DHT22;52231;40.090;18.348;2023-04-24T00:57:33;14.10;90.20
65582;DHT22;52231;40.090;18.348;2023-04-24T01:00:02;14.10;90.10
65582;DHT22;52231;40.090;18.348;2023-04-24T01:02:31;14.10;90.20
65582;DHT22;52231;40.090;18.348;2023-04-24T01:05:02;14.20;90.20
65582;DHT22;52231;40.090;18.348;2023-04-24T01:07:31;14.10;90.20
65582;DHT22;52231;40.090;18.348;2023-04-24T01:10:01;14.20;90.30
65582;DHT22;52231;40.090;18.348;2023-04-24T01:12:29;14.20;90.30
65582;DHT22;52231;40.090;18.348;2023-04-24T01:14:58;14.20;90.30
65582;DHT22;52231;40.090;18.348;2023-04-24T01:17:26;14.20;90.40
65582;DHT22;52231;40.090;18.348;2023-04-24T01:19:55;14.20;90.40
65582;DHT22;52231;40.090;18.348;2023-04-24T01:22:24;14.10;90.40
65582;DHT22;52231;40.090;18.348;2023-04-24T01:24:53;14.10;90.40
65582;DHT22;52231;40.090;18.348;2023-04-24T01:27:21;14.10;90.40
65582;DHT22;52231;40.090;18.348;2023-04-24T01:29:49;14.10;90.40
65582;DHT22;52231;40.090;18.348;2023-04-24T01:32:20;14.10;90.40
65582;DHT22;52231;40.090;18.348;2023-04-24T01:34:48;14.10;90.30
65582;DHT22;52231;40.090;18.348;2023-04-24T01:37:17;14.10;90.40
65582;DHT22;52231;40.090;18.348;2023-04-24T01:39:45;14.10;90.40
65582;DHT22;52231;40.090;18.348;2023-04-24T01:42:13;14.10;90.40
65582;DHT22;52231;40.090;18.348;2023-04-24T01:44:42;14.20;90.50
65582;DHT22;52231;40.090;18.348;2023-04-24T01:47:12;14.10;90.40
65582;DHT22;52231;40.090;18.348;2023-04-24T01:49:40;14.20;90.50
65582;DHT22;52231;40.090;18.348;2023-04-24T01:52:08;14.20;90.50
65582;DHT22;52231;40.090;18.348;2023-04-24T01:54:36;14.20;90.50
65582;DHT22;52231;40.090;18.348;2023-04-24T01:57:05;14.20;90.60
65582;DHT22;52231;40.090;18.348;2023-04-24T01:59:34;14.20;90.60
65582;DHT22;52231;40.090;18.348;2023-04-24T02:02:04;14.20;90.60
65582;DHT22;52231;40.090;18.348;2023-04-24T02:04:32;14.10;90.50
65582;DHT22;52231;40.090;18.348;2023-04-24T02:07:00;14.10;90.60
65582;DHT22;52231;40.090;18.348;2023-04-24T02:09:28;14.20;90.60
65582;DHT22;52231;40.090;18.348;2023-04-24T02:11:56;14.10;90.70
65582;DHT22;52231;40.090;18.348;2023-04-24T02:14:25;14.10;90.60
65582;DHT22;52231;40.090;18.348;2023-04-24T02:16:53;14.10;90.60
65582;DHT22;52231;40.090;18.348;2023-04-24T02:19:22;14.10;90.70
65582;DHT22;52231;40.090;18.348;2023-04-24T02:21:51;14.10;90.60
65582;DHT22;52231;40.090;18.348;2023-04-24T02:24:19;14.10;90.70
65582;DHT22;52231;40.090;18.348;2023-04-24T02:26:47;14.00;90.60
65582;DHT22;52231;40.090;18.348;2023-04-24T02:29:15;14.00;90.60
65582;DHT22;52231;40.090;18.348;2023-04-24T02:31:43;14.10;90.70
65582;DHT22;52231;40.090;18.348;2023-04-24T02:34:14;14.00;90.60
65582;DHT22;52231;40.090;18.348;2023-04-24T02:36:43;14.00;90.60
65582;DHT22;52231;40.090;18.348;2023-04-24T02:39:11;14.00;90.60
65582;DHT22;52231;40.090;18.348;2023-04-24T02:41:40;14.00;90.60
65582;DHT22;52231;40.090;18.348;2023-04-24T02:44:09;14.00;90.60
65582;DHT22;52231;40.090;18.348;2023-04-24T02:46:37;14.00;90.60
65582;DHT22;52231;40.090;18.348;2023-04-24T02:49:05;14.00;90.70
65582;DHT22;52231;40.090;18.348;2023-04-24T02:51:34;14.00;90.70
65582;DHT22;52231;40.090;18.348;2023-04-24T02:54:02;14.00;90.70
65582;DHT22;52231;40.090;18.348;2023-04-24T02:56:30;14.00;90.60
65582;DHT22;52231;40.090;18.348;2023-04-24T02:59:00;14.00;90.80
65582;DHT22;52231;40.090;18.348;2023-04-24T03:01:28;14.00;90.80
65582;DHT22;52231;40.090;18.348;2023-04-24T03:03:57;14.00;90.80
65582;DHT22;52231;40.090;18.348;2023-04-24T03:06:25;14.00;90.70
65582;DHT22;52231;40.090;18.348;2023-04-24T03:08:54;14.00;90.80
65582;DHT22;52231;40.090;18.348;2023-04-24T03:11:23;14.00;90.80
65582;DHT22;52231;40.090;18.348;2023-04-24T03:13:51;14.00;90.80
65582;DHT22;52231;40.090;18.348;2023-04-24T03:16:20;14.00;91.00
65582;DHT22;52231;40.090;18.348;2023-04-24T03:18:49;14.10;90.90
65582;DHT22;52231;40.090;18.348;2023-04-24T03:21:19;14.00;91.00
65582;DHT22;52231;40.090;18.348;2023-04-24T03:23:47;14.00;91.00
65582;DHT22;52231;40.090;18.348;2023-04-24T03:26:15;14.00;91.00
65582;DHT22;52231;40.090;18.348;2023-04-24T03:28:56;14.00;91.00
65582;DHT22;52231;40.090;18.348;2023-04-24T03:31:25;14.00;91.10
65582;DHT22;52231;40.090;18.348;2023-04-24T03:33:54;14.00;91.10
65582;DHT22;52231;40.090;18.348;2023-04-24T03:36:23;14.00;91.20
65582;DHT22;52231;40.090;18.348;2023-04-24T03:38:51;14.00;91.20
65582;DHT22;52231;40.090;18.348;2023-04-24T03:41:34;14.00;91.20
65582;DHT22;52231;40.090;18.348;2023-04-24T03:44:12;14.10;91.30
65582;DHT22;52231;40.090;18.348;2023-04-24T03:46:41;14.00;91.20
65582;DHT22;52231;40.090;18.348;2023-04-24T03:49:09;14.10;91.30
65582;DHT22;52231;40.090;18.348;2023-04-24T03:51:42;14.10;91.30
65582;DHT22;52231;40.090;18.348;2023-04-24T03:54:18;14.10;91.30
65582;DHT22;52231;40.090;18.348;2023-04-24T03:56:46;14.20;91.30
65582;DHT22;52231;40.090;18.348;2023-04-24T03:59:17;14.10;91.30
65582;DHT22;52231;40.090;18.348;2023-04-24T04:01:52;14.20;91.30
65582;DHT22;52231;40.090;18.348;2023-04-24T04:04:21;14.20;91.30
65582;DHT22;52231;40.090;18.348;2023-04-24T04:06:50;14.30;91.30
65582;DHT22;52231;40.090;18.348;2023-04-24T04:09:20;14.30;91.30
65582;DHT22;52231;40.090;18.348;2023-04-24T04:11:48;14.30;91.30
65582;DHT22;52231;40.090;18.348;2023-04-24T04:14:16;14.30;91.20
65582;DHT22;52231;40.090;18.348;2023-04-24T04:16:48;14.40;91.20
65582;DHT22;52231;40.090;18.348;2023-04-24T04:19:18;14.40;91.20
65582;DHT22;52231;40.090;18.348;2023-04-24T04:21:47;14.50;91.10
65582;DHT22;52231;40.090;18.348;2023-04-24T04:24:27;14.60;91.10
65582;DHT22;52231;40.090;18.348;2023-04-24T04:26:58;14.60;91.00
65582;DHT22;52231;40.090;18.348;2023-04-24T04:29:35;14.70;90.90
65582;DHT22;52231;40.090;18.348;2023-04-24T04:32:07;14.80;90.70
65582;DHT22;52231;40.090;18.348;2023-04-24T04:34:36;14.90;90.40
65582;DHT22;52231;40.090;18.348;2023-04-24T04:37:07;14.90;90.30
65582;DHT22;52231;40.090;18.348;2023-04-24T04:39:55;14.90;90.20
65582;DHT22;52231;40.090;18.348;2023-04-24T04:42:30;15.00;90.00
65582;DHT22;52231;40.090;18.348;2023-04-24T04:45:00;15.30;89.90
65582;DHT22;52231;40.090;18.348;2023-04-24T04:47:41;15.40;89.50
65582;DHT22;52231;40.090;18.348;2023-04-24T04:50:10;15.70;88.80
65582;DHT22;52231;40.090;18.348;2023-04-24T04:52:39;15.80;88.20
65582;DHT22;52231;40.090;18.348;2023-04-24T04:55:18;16.10;87.80
65582;DHT22;52231;40.090;18.348;2023-04-24T04:58:11;16.30;87.30
65582;DHT22;52231;40.090;18.348;2023-04-24T05:00:40;16.50;86.40
65582;DHT22;52231;40.090;18.348;2023-04-24T05:03:31;16.30;86.40
65582;DHT22;52231;40.090;18.348;2023-04-24T05:06:04;16.30;86.50
65582;DHT22;52231;40.090;18.348;2023-04-24T05:08:36;16.30;86.70
65582;DHT22;52231;40.090;18.348;2023-04-24T05:11:07;16.20;86.80
65582;DHT22;52231;40.090;18.348;2023-04-24T05:13:37;16.10;86.80
65582;DHT22;52231;40.090;18.348;2023-04-24T05:16:15;16.10;86.80
65582;DHT22;52231;40.090;18.348;2023-04-24T05:18:43;16.00;87.00
65582;DHT22;52231;40.090;18.348;2023-04-24T05:21:15;15.80;87.20
65582;DHT22;52231;40.090;18.348;2023-04-24T05:23:47;15.80;87.40
65582;DHT22;52231;40.090;18.348;2023-04-24T05:26:23;15.90;87.50
65582;DHT22;52231;40.090;18.348;2023-04-24T05:28:52;16.00;87.40
65582;DHT22;52231;40.090;18.348;2023-04-24T05:31:20;16.00;87.40
65582;DHT22;52231;40.090;18.348;2023-04-24T05:33:49;16.40;87.30
65582;DHT22;52231;40.090;18.348;2023-04-24T05:36:18;16.90;86.30
65582;DHT22;52231;40.090;18.348;2023-04-24T05:38:46;17.40;85.00
65582;DHT22;52231;40.090;18.348;2023-04-24T05:41:15;17.80;83.40
65582;DHT22;52231;40.090;18.348;2023-04-24T05:43:43;18.00;82.70
65582;DHT22;52231;40.090;18.348;2023-04-24T05:46:11;18.20;81.90
65582;DHT22;52231;40.090;18.348;2023-04-24T05:48:40;18.60;81.10
65582;DHT22;52231;40.090;18.348;2023-04-24T05:51:09;18.80;80.20
65582;DHT22;52231;40.090;18.348;2023-04-24T05:53:37;18.90;79.10
65582;DHT22;52231;40.090;18.348;2023-04-24T05:56:05;18.80;79.20
65582;DHT22;52231;40.090;18.348;2023-04-24T05:58:34;18.60;79.40
65582;DHT22;52231;40.090;18.348;2023-04-24T06:01:04;18.50;80.00
65582;DHT22;52231;40.090;18.348;2023-04-24T06:03:33;18.70;79.60
65582;DHT22;52231;40.090;18.348;2023-04-24T06:06:03;18.70;78.70
65582;DHT22;52231;40.090;18.348;2023-04-24T06:08:32;18.20;79.50
65582;DHT22;52231;40.090;18.348;2023-04-24T06:11:01;18.00;80.50
65582;DHT22;52231;40.090;18.348;2023-04-24T06:13:31;17.90;80.60
65582;DHT22;52231;40.090;18.348;2023-04-24T06:16:19;17.80;81.50
65582;DHT22;52231;40.090;18.348;2023-04-24T06:18:55;18.20;80.20
65582;DHT22;52231;40.090;18.348;2023-04-24T06:21:23;18.70;79.50
65582;DHT22;52231;40.090;18.348;2023-04-24T06:23:52;19.10;77.20
65582;DHT22;52231;40.090;18.348;2023-04-24T06:26:20;19.40;76.40
65582;DHT22;52231;40.090;18.348;2023-04-24T06:28:48;19.80;75.50
65582;DHT22;52231;40.090;18.348;2023-04-24T06:31:20;20.00;74.50
65582;DHT22;52231;40.090;18.348;2023-04-24T06:33:49;20.00;74.10
65582;DHT22;52231;40.090;18.348;2023-04-24T06:36:17;20.10;73.10
65582;DHT22;52231;40.090;18.348;2023-04-24T06:38:45;20.20;73.60
65582;DHT22;52231;40.090;18.348;2023-04-24T06:41:13;20.10;73.10
65582;DHT22;52231;40.090;18.348;2023-04-24T06:43:41;20.30;73.00
65582;DHT22;52231;40.090;18.348;2023-04-24T06:46:09;20.70;71.40
65582;DHT22;52231;40.090;18.348;2023-04-24T06:48:38;20.90;70.50
65582;DHT22;52231;40.090;18.348;2023-04-24T06:51:07;21.00;70.70
65582;DHT22;52231;40.090;18.348;2023-04-24T06:53:35;20.90;70.30
65582;DHT22;52231;40.090;18.348;2023-04-24T06:56:03;20.80;69.70
65582;DHT22;52231;40.090;18.348;2023-04-24T06:58:32;20.50;70.20
65582;DHT22;52231;40.090;18.348;2023-04-24T07:01:01;20.70;70.60
65582;DHT22;52231;40.090;18.348;2023-04-24T07:03:29;20.90;70.10
65582;DHT22;52231;40.090;18.348;2023-04-24T07:05:57;20.60;70.10
65582;DHT22;52231;40.090;18.348;2023-04-24T07:08:25;20.60;69.80
65582;DHT22;52231;40.090;18.348;2023-04-24T07:10:54;20.90;69.60
65582;DHT22;52231;40.090;18.348;2023-04-24T07:13:23;21.20;69.60
65582;DHT22;52231;40.090;18.348;2023-04-24T07:15:51;21.20;68.60
65582;DHT22;52231;40.090;18.348;2023-04-24T07:18:21;21.50;68.20
65582;DHT22;52231;40.090;18.348;2023-04-24T07:20:49;21.80;66.40
65582;DHT22;52231;40.090;18.348;2023-04-24T07:23:20;21.60;67.10
65582;DHT22;52231;40.090;18.348;2023-04-24T07:25:48;21.50;67.20
65582;DHT22;52231;40.090;18.348;2023-04-24T07:28:16;21.30;67.60
65582;DHT22;52231;40.090;18.348;2023-04-24T07:30:45;21.10;67.50
65582;DHT22;52231;40.090;18.348;2023-04-24T07:33:13;20.90;68.60
65582;DHT22;52231;40.090;18.348;2023-04-24T07:35:41;20.90;68.00
65582;DHT22;52231;40.090;18.348;2023-04-24T07:38:10;21.20;67.60
65582;DHT22;52231;40.090;18.348;2023-04-24T07:40:38;21.10;67.00
65582;DHT22;52231;40.090;18.348;2023-04-24T07:43:06;21.10;67.10
65582;DHT22;52231;40.090;18.348;2023-04-24T07:45:34;21.30;67.60
65582;DHT22;52231;40.090;18.348;2023-04-24T07:48:05;21.50;65.90
65582;DHT22;52231;40.090;18.348;2023-04-24T07:50:33;21.30;67.00
65582;DHT22;52231;40.090;18.348;2023-04-24T07:53:02;21.30;67.60
65582;DHT22;52231;40.090;18.348;2023-04-24T07:55:30;21.70;66.20
65582;DHT22;52231;40.090;18.348;2023-04-24T07:57:58;22.00;65.80
65582;DHT22;52231;40.090;18.348;2023-04-24T08:00:31;22.30;64.00
65582;DHT22;52231;40.090;18.348;2023-04-24T08:02:59;22.60;63.30
65582;DHT22;52231;40.090;18.348;2023-04-24T08:05:27;22.60;62.60
65582;DHT22;52231;40.090;18.348;2023-04-24T08:07:56;22.30;63.30
65582;DHT22;52231;40.090;18.348;2023-04-24T08:10:25;21.90;64.90
65582;DHT22;52231;40.090;18.348;2023-04-24T08:12:53;21.50;66.20
65582;DHT22;52231;40.090;18.348;2023-04-24T08:15:23;21.30;67.20
65582;DHT22;52231;40.090;18.348;2023-04-24T08:17:51;21.40;67.80
65582;DHT22;52231;40.090;18.348;2023-04-24T08:20:19;21.20;66.70
65582;DHT22;52231;40.090;18.348;2023-04-24T08:22:47;21.10;68.00
65582;DHT22;52231;40.090;18.348;2023-04-24T08:25:17;21.60;68.30
65582;DHT22;52231;40.090;18.348;2023-04-24T08:27:46;22.10;65.60
65582;DHT22;52231;40.090;18.348;2023-04-24T08:30:14;22.00;64.40
65582;DHT22;52231;40.090;18.348;2023-04-24T08:32:42;21.80;65.10
65582;DHT22;52231;40.090;18.348;2023-04-24T08:35:10;21.80;65.30
65582;DHT22;52231;40.090;18.348;2023-04-24T08:37:38;22.00;63.70
65582;DHT22;52231;40.090;18.348;2023-04-24T08:40:13;22.30;62.60
65582;DHT22;52231;40.090;18.348;2023-04-24T08:42:43;22.80;62.00
65582;DHT22;52231;40.090;18.348;2023-04-24T08:45:13;23.00;61.70
65582;DHT22;52231;40.090;18.348;2023-04-24T08:47:41;22.80;62.40
65582;DHT22;52231;40.090;18.348;2023-04-24T08:50:10;23.20;62.00
65582;DHT22;52231;40.090;18.348;2023-04-24T08:52:38;23.00;61.70
65582;DHT22;52231;40.090;18.348;2023-04-24T08:55:07;22.60;62.30
65582;DHT22;52231;40.090;18.348;2023-04-24T08:57:36;22.60;62.40
65582;DHT22;52231;40.090;18.348;2023-04-24T09:00:08;22.70;62.70
65582;DHT22;52231;40.090;18.348;2023-04-24T09:02:45;22.50;63.10
65582;DHT22;52231;40.090;18.348;2023-04-24T09:05:16;22.80;62.60
65582;DHT22;52231;40.090;18.348;2023-04-24T09:07:50;22.70;63.20
65582;DHT22;52231;40.090;18.348;2023-04-24T09:10:23;22.50;63.70
65582;DHT22;52231;40.090;18.348;2023-04-24T09:12:52;22.30;64.10
65582;DHT22;52231;40.090;18.348;2023-04-24T09:15:20;22.20;64.50
65582;DHT22;52231;40.090;18.348;2023-04-24T09:17:48;22.10;64.70
65582;DHT22;52231;40.090;18.348;2023-04-24T09:20:16;22.00;65.00
65582;DHT22;52231;40.090;18.348;2023-04-24T09:22:45;21.80;66.20
65582;DHT22;52231;40.090;18.348;2023-04-24T09:25:13;21.90;66.00
65582;DHT22;52231;40.090;18.348;2023-04-24T09:27:45;22.00;65.50
65582;DHT22;52231;40.090;18.348;2023-04-24T09:30:13;22.60;64.30
65582;DHT22;52231;40.090;18.348;2023-04-24T09:32:42;23.00;62.80
65582;DHT22;52231;40.090;18.348;2023-04-24T09:35:11;23.00;61.80
65582;DHT22;52231;40.090;18.348;2023-04-24T09:37:46;22.40;64.00
65582;DHT22;52231;40.090;18.348;2023-04-24T09:40:21;22.10;64.80
65582;DHT22;52231;40.090;18.348;2023-04-24T09:42:55;21.90;65.50
65582;DHT22;52231;40.090;18.348;2023-04-24T09:45:35;22.00;64.60
65582;DHT22;52231;40.090;18.348;2023-04-24T09:48:04;22.10;64.80
65582;DHT22;52231;40.090;18.348;2023-04-24T09:50:34;22.20;64.90
65582;DHT22;52231;40.090;18.348;2023-04-24T09:53:03;22.40;64.30
65582;DHT22;52231;40.090;18.348;2023-04-24T09:55:32;22.30;64.80
65582;DHT22;52231;40.090;18.348;2023-04-24T09:58:01;22.30;65.20
65582;DHT22;52231;40.090;18.348;2023-04-24T10:00:33;22.60;64.30
65582;DHT22;52231;40.090;18.348;2023-04-24T10:03:03;22.70;64.10
65582;DHT22;52231;40.090;18.348;2023-04-24T10:05:36;23.00;62.10
65582;DHT22;52231;40.090;18.348;2023-04-24T10:08:09;23.20;61.20
65582;DHT22;52231;40.090;18.348;2023-04-24T10:10:43;23.10;58.80
65582;DHT22;52231;40.090;18.348;2023-04-24T10:13:13;23.40;57.70
65582;DHT22;52231;40.090;18.348;2023-04-24T10:15:42;23.40;56.20
65582;DHT22;52231;40.090;18.348;2023-04-24T10:18:11;23.90;55.10
65582;DHT22;52231;40.090;18.348;2023-04-24T10:20:40;24.10;55.90
65582;DHT22;52231;40.090;18.348;2023-04-24T10:23:09;23.90;55.90
65582;DHT22;52231;40.090;18.348;2023-04-24T10:25:38;23.90;54.70
65582;DHT22;52231;40.090;18.348;2023-04-24T10:28:07;24.60;54.00
65582;DHT22;52231;40.090;18.348;2023-04-24T10:30:39;25.40;51.20
65582;DHT22;52231;40.090;18.348;2023-04-24T10:33:11;26.00;50.00
65582;DHT22;52231;40.090;18.348;2023-04-24T10:35:44;26.40;48.90
65582;DHT22;52231;40.090;18.348;2023-04-24T10:38:22;26.60;49.20
65582;DHT22;52231;40.090;18.348;2023-04-24T10:41:07;26.30;48.40
65582;DHT22;52231;40.090;18.348;2023-04-24T10:43:39;26.70;49.10
65582;DHT22;52231;40.090;18.348;2023-04-24T10:46:08;26.60;49.00
65582;DHT22;52231;40.090;18.348;2023-04-24T10:48:42;26.30;49.30
65582;DHT22;52231;40.090;18.348;2023-04-24T10:51:14;25.80;50.10
65582;DHT22;52231;40.090;18.348;2023-04-24T10:53:43;25.40;51.70
65582;DHT22;52231;40.090;18.348;2023-04-24T10:56:11;24.80;52.30
65582;DHT22;52231;40.090;18.348;2023-04-24T10:58:44;24.90;52.10
65582;DHT22;52231;40.090;18.348;2023-04-24T11:01:29;25.00;52.20
65582;DHT22;52231;40.090;18.348;2023-04-24T11:04:02;24.90;52.20
65582;DHT22;52231;40.090;18.348;2023-04-24T11:06:37;24.60;52.90
65582;DHT22;52231;40.090;18.348;2023-04-24T11:09:10;24.20;54.10
65582;DHT22;52231;40.090;18.348;2023-04-24T11:11:47;23.80;54.70
65582;DHT22;52231;40.090;18.348;2023-04-24T11:14:16;23.10;57.10
65582;DHT22;52231;40.090;18.348;2023-04-24T11:16:56;22.50;59.00
65582;DHT22;52231;40.090;18.348;2023-04-24T11:19:25;22.00;60.10
65582;DHT22;52231;40.090;18.348;2023-04-24T11:22:06;21.70;61.40
65582;DHT22;52231;40.090;18.348;2023-04-24T11:24:51;21.30;62.30
65582;DHT22;52231;40.090;18.348;2023-04-24T11:27:31;21.10;63.60
65582;DHT22;52231;40.090;18.348;2023-04-24T11:30:06;21.10;65.00
65582;DHT22;52231;40.090;18.348;2023-04-24T11:32:41;21.30;67.90
65582;DHT22;52231;40.090;18.348;2023-04-24T11:35:19;21.50;66.10
65582;DHT22;52231;40.090;18.348;2023-04-24T11:37:51;21.90;64.40
65582;DHT22;52231;40.090;18.348;2023-04-24T11:40:31;22.30;62.30
65582;DHT22;52231;40.090;18.348;2023-04-24T11:43:04;22.60;61.10
65582;DHT22;52231;40.090;18.348;2023-04-24T11:45:34;22.90;59.70
65582;DHT22;52231;40.090;18.348;2023-04-24T11:48:08;22.90;60.00
65582;DHT22;52231;40.090;18.348;2023-04-24T11:50:36;23.10;61.70
65582;DHT22;52231;40.090;18.348;2023-04-24T11:53:05;23.10;62.60
65582;DHT22;52231;40.090;18.348;2023-04-24T11:55:33;23.20;63.30
65582;DHT22;52231;40.090;18.348;2023-04-24T11:58:02;23.20;63.60
65582;DHT22;52231;40.090;18.348;2023-04-24T12:00:32;23.30;62.50
65582;DHT22;52231;40.090;18.348;2023-04-24T12:03:11;23.10;63.80
65582;DHT22;52231;40.090;18.348;2023-04-24T12:05:40;23.10;63.70
65582;DHT22;52231;40.090;18.348;2023-04-24T12:08:08;22.80;63.90
65582;DHT22;52231;40.090;18.348;2023-04-24T12:10:37;22.80;64.70
65582;DHT22;52231;40.090;18.348;2023-04-24T12:13:05;22.90;63.60
65582;DHT22;52231;40.090;18.348;2023-04-24T12:15:34;23.00;62.90
65582;DHT22;52231;40.090;18.348;2023-04-24T12:18:03;23.30;63.00
65582;DHT22;52231;40.090;18.348;2023-04-24T12:20:32;23.60;62.30
65582;DHT22;52231;40.090;18.348;2023-04-24T12:23:01;23.60;61.30
65582;DHT22;52231;40.090;18.348;2023-04-24T12:25:31;23.80;61.70
65582;DHT22;52231;40.090;18.348;2023-04-24T12:30:42;23.00;62.50
65582;DHT22;52231;40.090;18.348;2023-04-24T12:33:19;22.60;64.70
65582;DHT22;52231;40.090;18.348;2023-04-24T12:35:51;22.50;64.80
65582;DHT22;52231;40.090;18.348;2023-04-24T12:38:26;22.60;64.90
65582;DHT22;52231;40.090;18.348;2023-04-24T12:41:03;23.60;62.10
65582;DHT22;52231;40.090;18.348;2023-04-24T12:43:51;24.60;59.40
65582;DHT22;52231;40.090;18.348;2023-04-24T12:46:19;24.80;58.40
65582;DHT22;52231;40.090;18.348;2023-04-24T12:48:49;24.80;59.00
65582;DHT22;52231;40.090;18.348;2023-04-24T12:51:17;24.60;58.70
65582;DHT22;52231;40.090;18.348;2023-04-24T12:53:45;24.00;60.30
65582;DHT22;52231;40.090;18.348;2023-04-24T12:56:13;23.60;61.70
65582;DHT22;52231;40.090;18.348;2023-04-24T12:58:42;23.40;62.60
65582;DHT22;52231;40.090;18.348;2023-04-24T13:01:13;23.30;62.60
65582;DHT22;52231;40.090;18.348;2023-04-24T13:03:41;22.90;63.50
65582;DHT22;52231;40.090;18.348;2023-04-24T13:06:10;22.80;63.90
65582;DHT22;52231;40.090;18.348;2023-04-24T13:08:38;22.50;64.60
65582;DHT22;52231;40.090;18.348;2023-04-24T13:11:06;22.30;64.60
65582;DHT22;52231;40.090;18.348;2023-04-24T13:13:35;22.20;64.50
65582;DHT22;52231;40.090;18.348;2023-04-24T13:16:03;22.50;64.30
65582;DHT22;52231;40.090;18.348;2023-04-24T13:18:31;23.10;62.50
65582;DHT22;52231;40.090;18.348;2023-04-24T13:21:00;23.80;60.70
65582;DHT22;52231;40.090;18.348;2023-04-24T13:23:28;24.00;59.30
65582;DHT22;52231;40.090;18.348;2023-04-24T13:25:57;24.30;58.90
65582;DHT22;52231;40.090;18.348;2023-04-24T13:28:25;24.90;53.70
65582;DHT22;52231;40.090;18.348;2023-04-24T13:30:54;24.90;52.50
65582;DHT22;52231;40.090;18.348;2023-04-24T13:33:22;24.60;52.50
65582;DHT22;52231;40.090;18.348;2023-04-24T13:35:51;24.30;53.20
65582;DHT22;52231;40.090;18.348;2023-04-24T13:38:19;23.80;56.20
65582;DHT22;52231;40.090;18.348;2023-04-24T13:40:49;23.30;60.00
65582;DHT22;52231;40.090;18.348;2023-04-24T13:43:19;22.90;61.70
65582;DHT22;52231;40.090;18.348;2023-04-24T13:45:47;22.50;62.30
65582;DHT22;52231;40.090;18.348;2023-04-24T13:48:16;22.30;64.10
65582;DHT22;52231;40.090;18.348;2023-04-24T13:50:44;22.10;63.70
65582;DHT22;52231;40.090;18.348;2023-04-24T13:53:12;21.90;60.70
65582;DHT22;52231;40.090;18.348;2023-04-24T13:55:41;21.70;61.10
65582;DHT22;52231;40.090;18.348;2023-04-24T13:58:09;21.80;60.40
65582;DHT22;52231;40.090;18.348;2023-04-24T14:00:38;21.90;60.20
65582;DHT22;52231;40.090;18.348;2023-04-24T14:03:07;22.10;59.80
65582;DHT22;52231;40.090;18.348;2023-04-24T14:05:35;22.30;59.40
65582;DHT22;52231;40.090;18.348;2023-04-24T14:08:05;22.60;59.00
65582;DHT22;52231;40.090;18.348;2023-04-24T14:10:34;23.20;57.70
65582;DHT22;52231;40.090;18.348;2023-04-24T14:13:03;23.80;56.70
65582;DHT22;52231;40.090;18.348;2023-04-24T14:15:31;24.30;55.40
65582;DHT22;52231;40.090;18.348;2023-04-24T14:18:00;24.10;57.70
65582;DHT22;52231;40.090;18.348;2023-04-24T14:20:29;23.80;59.20
65582;DHT22;52231;40.090;18.348;2023-04-24T14:22:57;23.90;59.60
65582;DHT22;52231;40.090;18.348;2023-04-24T14:25:28;23.80;59.50
65582;DHT22;52231;40.090;18.348;2023-04-24T14:27:56;23.60;59.60
65582;DHT22;52231;40.090;18.348;2023-04-24T14:30:25;23.40;60.30
65582;DHT22;52231;40.090;18.348;2023-04-24T14:32:53;22.90;61.80
65582;DHT22;52231;40.090;18.348;2023-04-24T14:35:22;22.30;63.60
65582;DHT22;52231;40.090;18.348;2023-04-24T14:37:50;22.00;65.60
65582;DHT22;52231;40.090;18.348;2023-04-24T14:40:19;21.80;64.30
65582;DHT22;52231;40.090;18.348;2023-04-24T14:43:03;21.90;64.50
65582;DHT22;52231;40.090;18.348;2023-04-24T14:45:31;22.10;64.50
65582;DHT22;52231;40.090;18.348;2023-04-24T14:48:00;22.20;63.10
65582;DHT22;52231;40.090;18.348;2023-04-24T14:50:28;22.30;60.00
65582;DHT22;52231;40.090;18.348;2023-04-24T14:52:57;22.40;58.10
65582;DHT22;52231;40.090;18.348;2023-04-24T14:55:25;22.40;58.50
65582;DHT22;52231;40.090;18.348;2023-04-24T14:57:54;22.50;56.80
65582;DHT22;52231;40.090;18.348;2023-04-24T15:00:22;22.40;57.00
65582;DHT22;52231;40.090;18.348;2023-04-24T15:02:53;22.40;56.90
65582;DHT22;52231;40.090;18.348;2023-04-24T15:05:23;22.30;57.60
65582;DHT22;52231;40.090;18.348;2023-04-24T15:07:53;22.10;58.50
65582;DHT22;52231;40.090;18.348;2023-04-24T15:10:21;22.00;59.30
65582;DHT22;52231;40.090;18.348;2023-04-24T15:12:51;21.90;59.30
65582;DHT22;52231;40.090;18.348;2023-04-24T15:15:19;21.90;59.00
65582;DHT22;52231;40.090;18.348;2023-04-24T15:17:48;21.90;58.90
65582;DHT22;52231;40.090;18.348;2023-04-24T15:20:16;21.60;59.70
65582;DHT22;52231;40.090;18.348;2023-04-24T15:22:45;21.30;60.80
65582;DHT22;52231;40.090;18.348;2023-04-24T15:25:13;21.00;61.80
65582;DHT22;52231;40.090;18.348;2023-04-24T15:27:42;20.80;62.30
65582;DHT22;52231;40.090;18.348;2023-04-24T15:30:12;20.60;63.40
65582;DHT22;52231;40.090;18.348;2023-04-24T15:32:40;20.60;63.70
65582;DHT22;52231;40.090;18.348;2023-04-24T15:35:09;20.80;64.70